Time;durP1;ratioP1;P1;durP2;ratioP2;P2;SDS_P1;SDS_P2;PMS_P1;PMS_P2;Temp;Humidity;BMP_temperature;BMP_pressure;BME280_temperature;BME280_humidity;BME280_pressure;Samples;Min_cycle;Max_cycle;Signal;HPM_P1;HPM_P2
2020/12/31 00:00:11;;;;;;;7.15;3.35;;;23.90;73.90;;;;;;5071199;28;20095;-61
2020/12/31 00:02:39;;;;;;;11.88;3.55;;;24.00;75.00;;;;;;5071570;28;20032;-59
2020/12/31 00:05:06;;;;;;;6.60;3.10;;;24.00;75.80;;;;;;5070360;28;20047;-61
2020/12/31 00:07:34;;;;;;;9.40;3.80;;;24.00;75.80;;;;;;5069271;28;20033;-62
2020/12/31 00:10:01;;;;;;;6.30;3.17;;;24.10;75.60;;;;;;5071979;28;20483;-60
2020/12/31 00:12:29;;;;;;;7.82;3.03;;;24.10;75.60;;;;;;5070469;28;20119;-59
2020/12/31 00:14:56;;;;;;;7.85;2.92;;;24.10;75.70;;;;;;5071755;28;20104;-57
2020/12/31 00:17:24;;;;;;;15.25;4.05;;;24.10;75.30;;;;;;5071408;28;20029;-59
2020/12/31 00:19:51;;;;;;;6.20;2.75;;;24.10;74.60;;;;;;5071259;28;20114;-58
2020/12/31 00:22:18;;;;;;;6.05;3.08;;;24.20;74.50;;;;;;5071561;28;20385;-59
2020/12/31 00:24:46;;;;;;;6.25;2.53;;;24.20;74.80;;;;;;5071684;28;20028;-59
2020/12/31 00:27:13;;;;;;;6.63;2.67;;;24.20;74.50;;;;;;5071618;28;20093;-63
2020/12/31 00:29:41;;;;;;;4.53;2.58;;;24.20;74.70;;;;;;5071400;28;20374;-57
2020/12/31 00:32:08;;;;;;;8.68;2.78;;;24.30;73.90;;;;;;5071635;28;20430;-59
2020/12/31 00:34:35;;;;;;;5.38;2.60;;;24.30;74.70;;;;;;5071584;28;20109;-58
2020/12/31 00:37:03;;;;;;;6.55;2.45;;;24.30;73.50;;;;;;5075096;28;20035;-60
2020/12/31 00:39:31;;;;;;;5.93;2.15;;;24.30;74.00;;;;;;5074768;28;20021;-61
2020/12/31 00:41:58;;;;;;;7.65;2.47;;;24.30;74.60;;;;;;5074789;28;20028;-57
2020/12/31 00:44:26;;;;;;;5.68;2.67;;;24.30;74.90;;;;;;5075199;28;20024;-61
2020/12/31 00:46:53;;;;;;;5.35;2.65;;;24.30;74.80;;;;;;5075237;28;20017;-59
2020/12/31 00:49:20;;;;;;;6.45;2.65;;;24.30;74.70;;;;;;5074961;28;20033;-62
2020/12/31 00:51:48;;;;;;;3.95;2.25;;;24.20;74.40;;;;;;5075502;28;20025;-64
2020/12/31 00:54:15;;;;;;;4.75;2.60;;;24.20;75.00;;;;;;5074787;28;20025;-63
2020/12/31 00:56:42;;;;;;;6.57;2.38;;;24.20;75.10;;;;;;5074681;28;20056;-60
2020/12/31 00:59:10;;;;;;;5.57;2.15;;;24.20;74.60;;;;;;5074858;28;20021;-60
2020/12/31 01:01:37;;;;;;;11.73;2.95;;;24.20;74.40;;;;;;5074305;28;20110;-64
2020/12/31 01:04:04;;;;;;;4.00;2.10;;;24.20;74.30;;;;;;5074446;28;20494;-61
2020/12/31 01:06:38;;;;;;;7.57;2.47;;;24.20;75.00;;;;;;5074546;28;20426;-63
2020/12/31 01:09:09;;;;;;;5.32;2.10;;;24.20;74.30;;;;;;5074584;28;20078;-61
2020/12/31 01:11:37;;;;;;;8.68;2.50;;;24.10;75.00;;;;;;5074424;28;20481;-60
2020/12/31 01:14:06;;;;;;;4.95;2.10;;;24.10;75.30;;;;;;5074352;28;20074;-64
2020/12/31 01:16:34;;;;;;;3.65;1.85;;;24.10;74.80;;;;;;5074681;28;20055;-66
2020/12/31 01:19:03;;;;;;;6.53;2.72;;;24.10;75.10;;;;;;5074164;28;20025;-62
2020/12/31 01:21:30;;;;;;;6.88;2.08;;;24.10;74.60;;;;;;5074252;28;20029;-60
2020/12/31 01:23:58;;;;;;;4.60;2.25;;;24.10;74.80;;;;;;5074300;28;20541;-61
2020/12/31 01:26:35;;;;;;;3.78;2.08;;;24.10;75.50;;;;;;5074239;28;20108;-58
2020/12/31 01:29:03;;;;;;;4.65;2.25;;;24.00;75.80;;;;;;5074528;28;20417;-59
2020/12/31 01:31:31;;;;;;;5.72;2.10;;;24.00;75.80;;;;;;5072582;28;20070;-58
2020/12/31 01:33:59;;;;;;;5.57;2.22;;;24.00;74.80;;;;;;5073659;28;20103;-60
2020/12/31 01:36:26;;;;;;;4.85;2.20;;;24.00;75.10;;;;;;5074227;28;20032;-63
2020/12/31 01:38:54;;;;;;;6.85;2.05;;;24.00;75.40;;;;;;5074232;28;20032;-58
2020/12/31 01:41:25;;;;;;;4.07;2.17;;;24.00;75.60;;;;;;5073852;28;20032;-62
2020/12/31 01:44:05;;;;;;;4.57;1.90;;;24.00;75.30;;;;;;5073789;28;20111;-59
2020/12/31 01:46:34;;;;;;;7.18;2.20;;;24.00;75.10;;;;;;5073586;28;20032;-58
2020/12/31 01:49:04;;;;;;;7.35;2.17;;;24.00;75.60;;;;;;5073338;28;20506;-62
2020/12/31 01:51:34;;;;;;;7.90;2.70;;;24.00;75.40;;;;;;5073605;28;20164;-61
2020/12/31 01:54:03;;;;;;;7.57;2.63;;;24.00;75.20;;;;;;5073659;28;20017;-59
2020/12/31 01:56:34;;;;;;;4.90;2.17;;;24.00;76.00;;;;;;5073625;28;20031;-65
2020/12/31 01:59:02;;;;;;;3.47;1.90;;;24.00;76.00;;;;;;5073699;28;20043;-61
2020/12/31 02:01:30;;;;;;;4.35;2.10;;;23.90;76.20;;;;;;5072929;28;20486;-59
2020/12/31 02:03:59;;;;;;;7.53;1.80;;;23.90;76.30;;;;;;5073228;28;20043;-62
2020/12/31 02:06:28;;;;;;;3.30;1.98;;;23.90;75.90;;;;;;5071680;28;20079;-61
2020/12/31 02:08:56;;;;;;;2.33;1.60;;;23.90;77.00;;;;;;5073302;28;20062;-60
2020/12/31 02:11:25;;;;;;;3.78;1.90;;;23.90;76.40;;;;;;5073099;28;20103;-60
2020/12/31 02:13:54;;;;;;;4.95;1.80;;;23.80;76.50;;;;;;5071777;28;20103;-62
2020/12/31 02:16:28;;;;;;;4.78;1.98;;;23.80;76.60;;;;;;5071823;28;20115;-59
2020/12/31 02:19:00;;;;;;;3.22;1.52;;;23.80;76.80;;;;;;5073059;28;20100;-58
2020/12/31 02:21:30;;;;;;;6.85;1.92;;;23.80;76.90;;;;;;5072923;28;20040;-61
2020/12/31 02:24:00;;;;;;;5.05;2.08;;;23.70;77.10;;;;;;5073062;28;20033;-61
2020/12/31 02:26:29;;;;;;;3.38;1.67;;;23.80;77.50;;;;;;5072995;28;20029;-66
2020/12/31 02:28:58;;;;;;;6.20;2.58;;;23.70;77.80;;;;;;5073023;28;20024;-61
2020/12/31 02:31:27;;;;;;;4.45;1.60;;;23.70;77.80;;;;;;5072765;28;20368;-59
2020/12/31 02:33:56;;;;;;;5.18;1.85;;;23.70;78.00;;;;;;5072690;28;20020;-60
2020/12/31 02:36:26;;;;;;;4.43;2.10;;;23.60;77.80;;;;;;5072852;28;20066;-61
2020/12/31 02:38:55;;;;;;;5.68;1.95;;;23.60;78.00;;;;;;5072967;28;20481;-60
2020/12/31 02:41:22;;;;;;;3.10;1.85;;;23.60;78.10;;;;;;5072408;28;20052;-61
2020/12/31 02:43:50;;;;;;;3.42;1.27;;;23.50;77.90;;;;;;5072723;28;20040;-61
2020/12/31 02:46:21;;;;;;;3.70;2.13;;;23.50;78.50;;;;;;5072607;28;20051;-58
2020/12/31 02:48:51;;;;;;;4.40;2.13;;;23.40;78.90;;;;;;5072249;28;20442;-64
2020/12/31 02:51:20;;;;;;;4.53;2.40;;;23.40;78.70;;;;;;5072396;28;20111;-62
2020/12/31 02:53:48;;;;;;;4.53;1.83;;;23.40;78.60;;;;;;5072429;28;20506;-62
2020/12/31 02:56:20;;;;;;;2.92;1.40;;;23.40;78.90;;;;;;5072905;28;20029;-61
2020/12/31 02:58:48;;;;;;;3.38;1.63;;;23.30;79.00;;;;;;5069832;28;20093;-61
2020/12/31 03:01:17;;;;;;;4.25;2.05;;;23.30;78.90;;;;;;5072474;28;20055;-66
2020/12/31 03:03:45;;;;;;;3.90;1.70;;;23.30;79.20;;;;;;5072168;28;20441;-65
2020/12/31 03:06:12;;;;;;;5.78;2.03;;;23.30;79.10;;;;;;5072492;28;20063;-59
2020/12/31 03:08:41;;;;;;;7.10;2.28;;;23.30;79.60;;;;;;5072838;28;20482;-64
2020/12/31 03:11:21;;;;;;;3.17;1.70;;;23.30;79.50;;;;;;5072828;28;20085;-64
2020/12/31 03:13:50;;;;;;;3.60;1.70;;;23.20;79.70;;;;;;5072582;28;20055;-64
2020/12/31 03:16:18;;;;;;;3.75;1.55;;;23.20;80.10;;;;;;5072396;28;20510;-62
2020/12/31 03:18:46;;;;;;;4.15;2.00;;;23.20;80.10;;;;;;5072535;28;20406;-65
2020/12/31 03:21:14;;;;;;;4.53;2.10;;;23.20;81.00;;;;;;5071934;28;20052;-63
2020/12/31 03:23:42;;;;;;;5.88;1.85;;;23.20;80.10;;;;;;5072093;28;20064;-62
2020/12/31 03:26:09;;;;;;;4.57;1.65;;;23.20;80.20;;;;;;5072169;28;20107;-63
2020/12/31 03:28:36;;;;;;;3.85;1.90;;;23.20;80.30;;;;;;5072276;28;20024;-62
2020/12/31 03:31:04;;;;;;;3.88;1.83;;;23.10;80.30;;;;;;5072329;28;20033;-60
2020/12/31 03:33:31;;;;;;;2.60;1.60;;;23.10;80.40;;;;;;5070914;28;20032;-63
2020/12/31 03:35:59;;;;;;;3.13;1.73;;;23.10;80.50;;;;;;5071779;28;20028;-63
2020/12/31 03:38:27;;;;;;;4.88;1.98;;;23.10;80.80;;;;;;5072514;28;20028;-63
2020/12/31 03:40:54;;;;;;;2.35;1.20;;;23.10;80.70;;;;;;5070634;28;20032;-64
2020/12/31 03:43:22;;;;;;;3.25;1.60;;;23.00;80.70;;;;;;5072410;28;20453;-64
2020/12/31 03:45:49;;;;;;;3.75;1.75;;;23.10;80.90;;;;;;5072127;28;20055;-61
2020/12/31 03:48:17;;;;;;;4.47;1.85;;;23.00;80.90;;;;;;5070704;28;20032;-63
2020/12/31 03:50:44;;;;;;;3.38;1.33;;;23.00;81.10;;;;;;5072348;28;20417;-65
2020/12/31 03:53:11;;;;;;;3.58;1.58;;;23.00;81.10;;;;;;5071933;28;20056;-61
2020/12/31 03:55:39;;;;;;;3.55;1.58;;;23.00;81.20;;;;;;5071802;28;20359;-63
2020/12/31 03:58:06;;;;;;;4.28;1.92;;;23.00;81.30;;;;;;5070569;28;20148;-64
2020/12/31 04:00:35;;;;;;;3.45;1.52;;;23.00;81.20;;;;;;5071486;28;20025;-62
2020/12/31 04:03:02;;;;;;;4.57;2.00;;;23.00;81.10;;;;;;5071753;28;20094;-62
2020/12/31 04:05:30;;;;;;;4.47;1.80;;;23.00;81.20;;;;;;5071738;28;20036;-62
2020/12/31 04:07:57;;;;;;;4.65;1.85;;;23.00;81.40;;;;;;5071975;28;20107;-61
2020/12/31 04:10:25;;;;;;;3.33;1.77;;;23.00;81.30;;;;;;5072470;28;20186;-64
2020/12/31 04:12:52;;;;;;;5.22;1.80;;;22.90;81.30;;;;;;5075769;28;20103;-64
2020/12/31 04:15:20;;;;;;;2.55;1.42;;;22.90;81.30;;;;;;5075620;28;20570;-60
2020/12/31 04:17:47;;;;;;;3.90;1.55;;;22.90;81.30;;;;;;5075207;28;20364;-65
2020/12/31 04:20:14;;;;;;;2.65;1.48;;;22.90;81.50;;;;;;5075559;28;20045;-65
2020/12/31 04:22:42;;;;;;;4.45;1.70;;;22.90;81.40;;;;;;5075493;28;20036;-62
2020/12/31 04:25:10;;;;;;;2.13;1.13;;;22.90;81.50;;;;;;5075638;28;20021;-54
2020/12/31 04:27:37;;;;;;;3.35;1.52;;;22.90;81.60;;;;;;5074698;28;20039;-64
2020/12/31 04:30:05;;;;;;;4.15;1.63;;;22.90;81.70;;;;;;5073900;28;20384;-63
2020/12/31 04:32:32;;;;;;;2.92;1.50;;;22.90;81.70;;;;;;5075416;28;20119;-62
2020/12/31 04:34:59;;;;;;;4.53;1.48;;;22.90;81.60;;;;;;5074759;28;20040;-63
2020/12/31 04:37:26;;;;;;;3.78;1.40;;;22.90;81.60;;;;;;5075013;28;20020;-56
2020/12/31 04:39:54;;;;;;;2.80;1.40;;;22.90;81.70;;;;;;5075604;28;20024;-62
2020/12/31 04:42:21;;;;;;;2.55;1.65;;;22.90;81.80;;;;;;5075876;28;20029;-59
2020/12/31 04:44:50;;;;;;;4.45;1.83;;;22.90;81.80;;;;;;5075433;28;20028;-60
2020/12/31 04:47:22;;;;;;;6.43;1.95;;;22.80;81.60;;;;;;5076051;28;20028;-61
2020/12/31 04:49:53;;;;;;;4.07;2.05;;;22.80;81.70;;;;;;5075410;28;20021;-61
2020/12/31 04:52:21;;;;;;;4.53;1.80;;;22.90;82.40;;;;;;5075180;28;20089;-65
2020/12/31 04:54:50;;;;;;;4.47;1.80;;;22.80;81.90;;;;;;5063675;28;20386;-58
2020/12/31 04:57:20;;;;;;;5.20;2.03;;;22.80;81.60;;;;;;5070744;28;20039;-59
2020/12/31 04:59:48;;;;;;;6.15;1.85;;;22.80;81.60;;;;;;5074257;28;20028;-52
2020/12/31 05:02:15;;;;;;;3.33;1.67;;;22.90;81.60;;;;;;5074199;28;20029;-49
2020/12/31 05:04:43;;;;;;;4.80;1.92;;;22.90;81.50;;;;;;5068971;28;20082;-55
2020/12/31 05:07:11;;;;;;;3.85;1.67;;;22.90;81.60;;;;;;5068876;28;20024;-63
2020/12/31 05:09:38;;;;;;;6.03;1.58;;;22.90;81.60;;;;;;5073088;28;20025;-54
2020/12/31 05:12:05;;;;;;;3.08;1.75;;;22.90;81.70;;;;;;5073573;28;20032;-62
2020/12/31 05:14:34;;;;;;;3.47;1.45;;;22.90;81.60;;;;;;5069021;28;20016;-55
2020/12/31 05:17:19;;;;;;;3.65;1.70;;;22.90;81.60;;;;;;5070733;28;20494;-61
2020/12/31 05:19:47;;;;;;;3.55;1.67;;;22.90;81.40;;;;;;5068136;28;20490;-55
2020/12/31 05:22:16;;;;;;;3.58;1.85;;;22.90;81.50;;;;;;5073386;28;20040;-57
2020/12/31 05:24:48;;;;;;;3.65;1.50;;;22.90;81.40;;;;;;5074566;28;20122;-55
2020/12/31 05:27:18;;;;;;;4.38;1.70;;;22.90;81.40;;;;;;5074054;28;20025;-59
2020/12/31 05:30:04;;;;;;;4.68;2.08;;;22.90;82.00;;;;;;5073913;28;20039;-56
2020/12/31 05:32:34;;;;;;;3.40;1.58;;;22.90;81.40;;;;;;5072724;28;20039;-57
2020/12/31 05:35:08;;;;;;;2.85;1.77;;;22.90;81.30;;;;;;5072759;28;20154;-60
2020/12/31 05:37:36;;;;;;;3.65;1.75;;;22.90;81.40;;;;;;5073527;28;20024;-62
2020/12/31 05:40:05;;;;;;;4.30;1.88;;;22.90;81.40;;;;;;5072909;28;20419;-58
2020/12/31 05:42:35;;;;;;;2.13;1.30;;;22.90;81.40;;;;;;5073984;28;20487;-62
2020/12/31 05:45:17;;;;;;;4.63;1.92;;;22.90;81.40;;;;;;5074030;28;20375;-65
2020/12/31 05:47:52;;;;;;;2.65;1.50;;;22.80;81.30;;;;;;5072755;28;20518;-60
2020/12/31 05:50:27;;;;;;;3.50;1.55;;;22.80;81.40;;;;;;5074056;28;20071;-60
2020/12/31 05:52:55;;;;;;;3.97;1.30;;;22.80;81.40;;;;;;5074131;28;20024;-61
2020/12/31 05:55:24;;;;;;;4.50;1.67;;;22.80;81.50;;;;;;5073386;28;20036;-59
2020/12/31 05:57:58;;;;;;;4.80;1.70;;;22.80;81.60;;;;;;5073856;28;20021;-63
2020/12/31 06:00:30;;;;;;;4.00;1.65;;;22.80;81.60;;;;;;5073828;28;20475;-57
2020/12/31 06:03:01;;;;;;;3.85;1.33;;;22.80;81.60;;;;;;5073528;28;20044;-55
2020/12/31 06:05:30;;;;;;;4.13;1.75;;;22.80;81.60;;;;;;5073466;28;20020;-62
2020/12/31 06:07:59;;;;;;;3.05;1.70;;;22.80;81.60;;;;;;5073119;28;20534;-60
2020/12/31 06:10:31;;;;;;;3.75;1.70;;;22.80;81.70;;;;;;5073245;28;20031;-57
2020/12/31 06:13:01;;;;;;;;;;;22.80;81.60;;;;;;5073940;28;20093;-60
2020/12/31 06:15:40;;;;;;;4.18;1.52;;;22.80;81.60;;;;;;5073226;28;20343;-65
2020/12/31 06:18:08;;;;;;;2.28;1.38;;;22.80;81.60;;;;;;5072891;28;20467;-58
2020/12/31 06:20:39;;;;;;;4.05;1.67;;;22.80;82.10;;;;;;5073233;28;20106;-57
2020/12/31 06:23:14;;;;;;;4.82;1.48;;;22.80;81.50;;;;;;5073403;28;20480;-64
2020/12/31 06:25:49;;;;;;;2.63;1.30;;;22.80;81.50;;;;;;5073019;28;20487;-61
2020/12/31 06:28:19;;;;;;;3.63;1.48;;;22.80;81.50;;;;;;5073059;28;20036;-63
2020/12/31 06:30:51;;;;;;;9.18;1.58;;;22.80;81.50;;;;;;5071347;28;20166;-59
2020/12/31 06:33:26;;;;;;;2.92;1.45;;;22.80;81.40;;;;;;5072953;28;20021;-60
2020/12/31 06:36:01;;;;;;;3.08;1.23;;;22.80;81.40;;;;;;5073188;28;20024;-63
2020/12/31 06:38:34;;;;;;;3.42;1.70;;;22.80;81.40;;;;;;5072978;28;20085;-60
2020/12/31 06:41:02;;;;;;;3.33;1.35;;;22.80;81.40;;;;;;5072642;28;20028;-61
2020/12/31 06:43:36;;;;;;;4.50;1.20;;;22.80;81.30;;;;;;5072789;28;20046;-63
2020/12/31 06:46:23;;;;;;;5.43;1.88;;;22.80;81.30;;;;;;5072721;28;20025;-64
2020/12/31 06:48:54;;;;;;;5.30;1.80;;;22.80;81.30;;;;;;5072499;28;20424;-62
2020/12/31 06:51:28;;;;;;;4.75;1.45;;;22.80;81.30;;;;;;5072543;28;20094;-64
2020/12/31 06:53:56;;;;;;;5.35;1.25;;;22.80;81.30;;;;;;5073056;28;20170;-61
2020/12/31 06:56:45;;;;;;;3.88;1.63;;;22.80;81.30;;;;;;5072380;28;20044;-53
2020/12/31 06:59:34;;;;;;;4.57;1.33;;;22.80;81.20;;;;;;5071339;28;20339;-64
2020/12/31 07:02:23;;;;;;;3.47;1.40;;;22.80;81.20;;;;;;5072115;28;20463;-63
2020/12/31 07:04:50;;;;;;;6.05;1.67;;;22.80;81.20;;;;;;5072534;28;20035;-60
2020/12/31 07:07:24;;;;;;;4.93;1.52;;;22.80;81.30;;;;;;5072119;28;20032;-62
2020/12/31 07:09:58;;;;;;;6.13;2.05;;;22.80;81.20;;;;;;5072351;28;20489;-62
2020/12/31 07:12:46;;;;;;;4.53;1.77;;;22.80;81.20;;;;;;5072537;28;20089;-63
2020/12/31 07:15:17;;;;;;;6.22;1.73;;;22.80;81.20;;;;;;5072637;28;20024;-61
2020/12/31 07:17:46;;;;;;;5.35;1.65;;;22.80;81.30;;;;;;5063572;28;20024;-57
2020/12/31 07:20:15;;;;;;;6.13;1.52;;;22.80;81.50;;;;;;5071197;28;20078;-59
2020/12/31 07:22:43;;;;;;;5.63;2.17;;;22.80;81.50;;;;;;5068559;28;20055;-65
2020/12/31 07:25:14;;;;;;;10.73;3.13;;;22.90;81.90;;;;;;5070358;28;20024;-57
2020/12/31 07:27:44;;;;;;;8.77;3.15;;;22.80;82.30;;;;;;5070324;28;20081;-56
2020/12/31 07:30:15;;;;;;;8.50;3.33;;;22.80;82.30;;;;;;5070973;28;20035;-54
2020/12/31 07:33:02;;;;;;;12.88;4.70;;;22.90;82.30;;;;;;5066295;28;20473;-55
2020/12/31 07:35:43;;;;;;;18.05;4.97;;;22.90;82.20;;;;;;5070949;28;20530;-60
2020/12/31 07:38:13;;;;;;;16.75;4.82;;;22.90;82.40;;;;;;5069977;28;20025;-61
2020/12/31 07:40:51;;;;;;;22.20;5.68;;;22.90;82.40;;;;;;5071436;28;20028;-54
2020/12/31 07:43:27;;;;;;;20.73;5.43;;;22.90;82.50;;;;;;5065322;28;20040;-52
2020/12/31 07:45:56;;;;;;;19.75;5.03;;;23.00;81.60;;;;;;5069802;28;20021;-53
2020/12/31 07:48:25;;;;;;;17.75;5.07;;;22.90;82.20;;;;;;5069153;28;20502;-57
2020/12/31 07:51:01;;;;;;;23.92;6.95;;;23.00;82.10;;;;;;5070714;28;21347;-58
2020/12/31 07:53:29;;;;;;;15.43;5.72;;;22.90;81.90;;;;;;5066501;28;20028;-59
2020/12/31 07:55:58;;;;;;;19.25;5.97;;;23.00;81.90;;;;;;5070409;28;20548;-52
2020/12/31 07:58:32;;;;;;;31.90;7.22;;;23.00;81.70;;;;;;5070059;28;20023;-55
2020/12/31 08:01:02;;;;;;;22.77;6.55;;;23.00;81.80;;;;;;5069396;28;20475;-54
2020/12/31 08:03:33;;;;;;;21.52;7.28;;;23.00;81.80;;;;;;5065771;28;20486;-64
2020/12/31 08:06:06;;;;;;;20.42;6.28;;;23.00;81.80;;;;;;5069279;28;20035;-56
2020/12/31 08:08:34;;;;;;;18.98;6.10;;;23.00;81.60;;;;;;5070090;28;20025;-63
2020/12/31 08:11:11;;;;;;;16.10;5.60;;;23.00;81.70;;;;;;5070695;28;20100;-63
2020/12/31 08:13:39;;;;;;;21.83;5.53;;;23.00;81.50;;;;;;5063454;28;20028;-62
2020/12/31 08:16:07;;;;;;;14.10;4.63;;;23.00;81.60;;;;;;5070156;28;20048;-61
2020/12/31 08:18:35;;;;;;;15.85;5.45;;;23.10;81.60;;;;;;5066092;28;20032;-61
2020/12/31 08:21:09;;;;;;;18.42;6.07;;;23.10;81.80;;;;;;5070368;28;20056;-55
2020/12/31 08:23:41;;;;;;;14.82;5.40;;;23.10;81.50;;;;;;5066166;28;20028;-60
2020/12/31 08:26:15;;;;;;;18.63;5.20;;;23.10;81.50;;;;;;5070510;28;20029;-55
2020/12/31 08:28:44;;;;;;;17.95;5.78;;;23.10;81.50;;;;;;5066604;28;20050;-60
2020/12/31 08:31:22;;;;;;;15.90;5.47;;;23.10;81.40;;;;;;5070246;28;20499;-53
2020/12/31 08:33:58;;;;;;;14.13;4.65;;;23.10;81.40;;;;;;5065552;28;20039;-60
2020/12/31 08:36:29;;;;;;;15.70;4.78;;;23.00;81.20;;;;;;5068977;28;20277;-54
2020/12/31 08:39:00;;;;;;;16.42;5.47;;;23.10;81.40;;;;;;5068892;28;20020;-58
2020/12/31 08:41:27;;;;;;;16.07;5.30;;;23.10;81.40;;;;;;5069305;28;20446;-56
2020/12/31 08:43:57;;;;;;;13.30;4.28;;;23.10;81.30;;;;;;5063138;28;20487;-51
2020/12/31 08:46:24;;;;;;;12.65;4.68;;;23.10;81.40;;;;;;5067413;28;20119;-58
2020/12/31 08:48:58;;;;;;;14.13;4.93;;;23.10;81.30;;;;;;5068791;28;20033;-60
2020/12/31 08:51:31;;;;;;;15.23;4.80;;;23.10;81.20;;;;;;5069911;28;20081;-59
2020/12/31 08:54:03;;;;;;;10.90;4.68;;;23.10;81.30;;;;;;5066616;28;20031;-62
2020/12/31 08:56:32;;;;;;;13.85;4.50;;;23.10;81.30;;;;;;5069999;28;20028;-61
2020/12/31 08:59:17;;;;;;;15.68;5.47;;;23.00;81.20;;;;;;5070854;28;20135;-61
2020/12/31 09:01:48;;;;;;;11.35;3.78;;;23.10;81.20;;;;;;5070028;28;20379;-63
2020/12/31 09:04:21;;;;;;;14.95;4.68;;;23.10;81.20;;;;;;5072940;28;20519;-60
2020/12/31 09:06:52;;;;;;;13.85;4.78;;;23.00;81.10;;;;;;5071284;28;20397;-61
2020/12/31 09:09:20;;;;;;;14.85;4.97;;;23.00;81.10;;;;;;5072549;28;20024;-60
2020/12/31 09:12:01;;;;;;;15.30;4.20;;;23.00;81.10;;;;;;5069373;28;20067;-61
2020/12/31 09:14:30;;;;;;;15.18;4.55;;;23.00;81.20;;;;;;5071688;28;20110;-61
2020/12/31 09:16:57;;;;;;;12.60;3.83;;;23.00;81.20;;;;;;5074478;28;20036;-62
2020/12/31 09:19:25;;;;;;;11.82;4.05;;;23.00;81.10;;;;;;5074397;28;20098;-64
2020/12/31 09:21:53;;;;;;;12.38;4.07;;;23.00;81.20;;;;;;5074738;28;20033;-57
2020/12/31 09:24:22;;;;;;;10.38;3.95;;;23.00;80.20;;;;;;5073299;28;20387;-60
2020/12/31 09:27:00;;;;;;;10.20;4.65;;;22.90;81.00;;;;;;5065865;28;20016;-60
2020/12/31 09:29:28;;;;;;;9.05;3.80;;;22.90;81.30;;;;;;5069837;28;20036;-55
2020/12/31 09:31:56;;;;;;;10.82;3.50;;;22.90;81.20;;;;;;5072667;28;20082;-57
2020/12/31 09:34:24;;;;;;;12.57;4.18;;;22.90;81.20;;;;;;5070869;28;20029;-63
2020/12/31 09:37:12;;;;;;;12.95;3.67;;;22.90;81.10;;;;;;5072650;28;20056;-65
2020/12/31 09:39:39;;;;;;;10.25;3.70;;;23.00;81.10;;;;;;5073276;28;20465;-55
2020/12/31 09:42:07;;;;;;;10.55;3.83;;;22.90;81.00;;;;;;5073956;28;20161;-61
2020/12/31 09:44:34;;;;;;;12.05;3.83;;;22.90;81.00;;;;;;5068667;28;20024;-51
2020/12/31 09:47:06;;;;;;;11.13;3.95;;;22.90;81.00;;;;;;5071815;28;20028;-53
2020/12/31 09:49:34;;;;;;;11.77;4.43;;;22.90;81.00;;;;;;5073186;28;20059;-58
2020/12/31 09:52:01;;;;;;;7.80;3.67;;;22.90;80.90;;;;;;5072584;28;20028;-62
2020/12/31 09:54:29;;;;;;;9.55;3.30;;;22.90;81.00;;;;;;5067856;28;20028;-62
2020/12/31 09:56:56;;;;;;;11.45;3.75;;;22.90;81.00;;;;;;5071826;28;20367;-61
2020/12/31 09:59:23;;;;;;;12.15;4.47;;;22.90;81.00;;;;;;5072756;28;20036;-59
2020/12/31 10:01:51;;;;;;;8.88;3.83;;;22.90;80.90;;;;;;5072082;28;20121;-61
2020/12/31 10:04:19;;;;;;;9.65;3.70;;;22.90;81.00;;;;;;5068484;28;20028;-62
2020/12/31 10:06:49;;;;;;;11.95;3.22;;;22.90;80.90;;;;;;5072376;28;20046;-59
2020/12/31 10:09:16;;;;;;;12.50;3.92;;;22.90;80.90;;;;;;5071993;28;20032;-56
2020/12/31 10:11:54;;;;;;;7.90;2.65;;;22.90;80.80;;;;;;5067379;28;20383;-62
2020/12/31 10:14:21;;;;;;;8.88;3.45;;;22.90;80.70;;;;;;5064949;28;20020;-54
2020/12/31 10:16:49;;;;;;;6.30;2.90;;;22.90;80.70;;;;;;5071796;28;20028;-56
2020/12/31 10:19:18;;;;;;;10.25;3.80;;;22.90;80.80;;;;;;5067328;28;20025;-55
2020/12/31 10:21:48;;;;;;;9.40;3.17;;;22.90;80.60;;;;;;5071360;28;20028;-59
2020/12/31 10:24:16;;;;;;;8.20;3.47;;;22.90;80.60;;;;;;5063656;28;20028;-62
2020/12/31 10:26:45;;;;;;;7.43;3.53;;;22.90;80.70;;;;;;5072970;28;20479;-62
2020/12/31 10:29:17;;;;;;;8.43;2.45;;;22.90;80.60;;;;;;5073499;28;20028;-62
2020/12/31 10:31:49;;;;;;;8.68;3.30;;;22.90;80.70;;;;;;5072199;28;20021;-60
2020/12/31 10:34:16;;;;;;;9.25;3.92;;;22.90;80.70;;;;;;5072659;28;20037;-58
2020/12/31 10:36:48;;;;;;;6.13;3.20;;;22.80;80.50;;;;;;5070996;28;20016;-55
2020/12/31 10:39:16;;;;;;;7.60;2.97;;;22.80;80.70;;;;;;5071016;28;20069;-60
2020/12/31 10:41:43;;;;;;;10.52;4.25;;;22.80;80.80;;;;;;5070679;28;20027;-58
2020/12/31 10:44:11;;;;;;;8.50;3.05;;;22.80;80.80;;;;;;5070731;28;20025;-58
2020/12/31 10:46:38;;;;;;;7.82;3.58;;;22.80;80.80;;;;;;5072814;28;20028;-62
2020/12/31 10:49:06;;;;;;;9.73;3.10;;;22.80;80.80;;;;;;5072281;28;20024;-58
2020/12/31 10:51:42;;;;;;;7.75;3.25;;;22.70;81.40;;;;;;5072240;28;20027;-65
2020/12/31 10:54:11;;;;;;;8.75;2.92;;;22.70;80.60;;;;;;5071785;28;20021;-57
2020/12/31 10:56:38;;;;;;;11.13;2.95;;;22.70;80.80;;;;;;5072568;28;20017;-63
2020/12/31 10:59:06;;;;;;;7.57;2.30;;;22.70;80.70;;;;;;5072585;28;20033;-61
2020/12/31 11:01:33;;;;;;;7.05;3.15;;;22.70;80.80;;;;;;5071909;28;20025;-62
2020/12/31 11:04:01;;;;;;;7.20;2.75;;;22.60;80.70;;;;;;5052712;28;20037;-61
2020/12/31 11:06:30;;;;;;;9.18;3.20;;;22.60;80.80;;;;;;5052862;28;20029;-57
2020/12/31 11:08:57;;;;;;;7.00;2.85;;;22.60;80.80;;;;;;5052609;28;20370;-62
2020/12/31 11:11:31;;;;;;;6.65;2.50;;;22.50;81.00;;;;;;5052550;28;20049;-61
2020/12/31 11:13:58;;;;;;;7.18;2.92;;;22.50;81.10;;;;;;5072551;28;20063;-64
2020/12/31 11:16:26;;;;;;;5.85;2.70;;;22.50;81.10;;;;;;5072568;28;20092;-63
2020/12/31 11:18:53;;;;;;;7.18;2.47;;;22.50;81.20;;;;;;5071425;28;20025;-60
2020/12/31 11:21:23;;;;;;;8.57;3.10;;;22.50;81.20;;;;;;5071819;28;20060;-56
2020/12/31 11:23:51;;;;;;;8.25;3.15;;;22.50;81.10;;;;;;5072175;28;20040;-65
2020/12/31 11:26:20;;;;;;;5.55;2.15;;;22.40;80.70;;;;;;5072235;28;20021;-62
2020/12/31 11:28:49;;;;;;;8.40;2.88;;;22.50;81.10;;;;;;5072342;28;20047;-62
2020/12/31 11:31:27;;;;;;;8.30;2.80;;;22.40;81.00;;;;;;5072150;28;20477;-63
2020/12/31 11:33:55;;;;;;;7.15;2.72;;;22.40;81.10;;;;;;5072034;28;20107;-62
2020/12/31 11:36:24;;;;;;;8.07;2.90;;;22.40;81.10;;;;;;5072115;28;20147;-61
2020/12/31 11:38:52;;;;;;;6.45;2.40;;;22.40;81.20;;;;;;5072208;28;20044;-61
2020/12/31 11:41:20;;;;;;;8.57;2.60;;;22.40;81.00;;;;;;5070549;28;20038;-60
2020/12/31 11:43:49;;;;;;;7.28;2.30;;;22.40;81.20;;;;;;5072417;28;20040;-59
2020/12/31 11:46:17;;;;;;;6.18;2.22;;;22.30;81.10;;;;;;5072321;28;20024;-62
2020/12/31 11:48:45;;;;;;;7.13;2.15;;;22.30;81.10;;;;;;5072424;28;20056;-55
2020/12/31 11:51:13;;;;;;;6.15;2.50;;;22.30;81.50;;;;;;5072629;28;20028;-55
2020/12/31 11:53:45;;;;;;;8.13;2.40;;;22.30;81.50;;;;;;5064546;28;20025;-49
2020/12/31 11:56:12;;;;;;;6.13;2.47;;;22.30;81.50;;;;;;5067596;28;20029;-54
2020/12/31 11:58:40;;;;;;;7.85;2.30;;;22.30;81.50;;;;;;5068751;28;20033;-56
2020/12/31 12:01:08;;;;;;;5.97;2.53;;;22.30;81.30;;;;;;5068841;28;20032;-53
2020/12/31 12:03:35;;;;;;;8.75;2.63;;;22.30;81.30;;;;;;5070661;28;20131;-59
2020/12/31 12:06:03;;;;;;;7.95;2.45;;;22.30;81.10;;;;;;5070795;28;20039;-53
2020/12/31 12:08:30;;;;;;;7.20;2.78;;;22.30;81.30;;;;;;5070116;28;20085;-60
2020/12/31 12:10:58;;;;;;;5.82;2.17;;;22.30;81.30;;;;;;5069176;28;20032;-61
2020/12/31 12:13:27;;;;;;;6.65;2.63;;;22.30;81.20;;;;;;5067864;28;20028;-56
2020/12/31 12:15:54;;;;;;;7.93;2.13;;;22.30;80.90;;;;;;5069999;28;20467;-59
2020/12/31 12:18:23;;;;;;;7.40;2.33;;;22.30;80.80;;;;;;5071172;28;20024;-56
2020/12/31 12:20:51;;;;;;;6.20;2.28;;;22.40;80.90;;;;;;5070159;28;20045;-61
2020/12/31 12:23:21;;;;;;;6.68;2.40;;;22.40;80.80;;;;;;5066141;28;20033;-62
2020/12/31 12:25:50;;;;;;;5.03;1.95;;;22.40;80.80;;;;;;5067218;28;20024;-59
2020/12/31 12:28:17;;;;;;;6.72;2.30;;;22.40;80.80;;;;;;5070833;28;20487;-56
2020/12/31 12:30:45;;;;;;;6.90;2.30;;;22.30;80.70;;;;;;5070203;28;20031;-59
2020/12/31 12:33:12;;;;;;;5.72;2.40;;;22.30;80.70;;;;;;5068675;28;20111;-49
2020/12/31 12:35:39;;;;;;;5.55;2.08;;;22.30;80.70;;;;;;5073763;28;20024;-55
2020/12/31 12:38:07;;;;;;;6.43;1.95;;;22.30;80.70;;;;;;5074901;28;20048;-62
2020/12/31 12:40:35;;;;;;;5.45;2.10;;;22.40;80.50;;;;;;5074305;28;20029;-54
2020/12/31 12:43:02;;;;;;;5.75;2.15;;;22.40;80.40;;;;;;5070167;28;20040;-56
2020/12/31 12:45:30;;;;;;;6.63;2.10;;;22.40;80.40;;;;;;5070695;28;20103;-57
2020/12/31 12:47:57;;;;;;;5.53;2.03;;;22.40;80.40;;;;;;5068961;28;20032;-54
2020/12/31 12:50:24;;;;;;;5.68;1.88;;;22.40;80.40;;;;;;5073776;28;20029;-59
2020/12/31 12:52:52;;;;;;;7.13;1.85;;;22.30;80.40;;;;;;5069565;28;20459;-57
2020/12/31 12:55:19;;;;;;;4.63;1.80;;;22.30;80.20;;;;;;5073500;28;20017;-54
2020/12/31 12:57:47;;;;;;;5.15;2.20;;;22.30;80.20;;;;;;5074653;28;20066;-51